Time;durP1;ratioP1;P1;durP2;ratioP2;P2;SDS_P1;SDS_P2;PMS_P1;PMS_P2;Temp;Humidity;BMP_temperature;BMP_pressure;BME280_temperature;BME280_humidity;BME280_pressure;Samples;Min_cycle;Max_cycle;Signal;HPM_P1;HPM_P2
2023/11/09 00:02:23;;;;;;;2.50;2.20;;;4.60;99.90;;;;;;5006086;28;20034;-78
2023/11/09 00:04:49;;;;;;;3.60;2.47;;;4.60;99.90;;;;;;5008218;28;20057;-77
2023/11/09 00:07:19;;;;;;;4.07;2.38;;;4.60;99.90;;;;;;5006059;28;20096;-76
2023/11/09 00:09:45;;;;;;;3.70;2.20;;;4.50;99.90;;;;;;5002703;28;20038;-78
2023/11/09 00:12:10;;;;;;;3.75;2.17;;;4.60;99.90;;;;;;5007492;28;20050;-77
2023/11/09 00:14:36;;;;;;;2.90;1.92;;;4.50;99.90;;;;;;5000425;28;20053;-77
2023/11/09 00:17:02;;;;;;;3.05;1.92;;;4.50;99.90;;;;;;5003947;28;20057;-77
2023/11/09 00:19:28;;;;;;;3.35;2.28;;;4.50;99.90;;;;;;5004279;28;20048;-78
2023/11/09 00:21:54;;;;;;;3.03;2.35;;;4.40;99.90;;;;;;5003058;28;20026;-78
2023/11/09 00:24:20;;;;;;;3.65;2.58;;;4.40;99.90;;;;;;5003084;28;20076;-77
2023/11/09 00:26:48;;;;;;;3.67;2.50;;;4.30;99.90;;;;;;5010657;28;20726;-77
2023/11/09 00:29:14;;;;;;;2.25;2.05;;;4.30;99.90;;;;;;5007814;28;20048;-77
2023/11/09 00:31:39;;;;;;;8.85;3.13;;;4.30;99.90;;;;;;5004959;28;20038;-77
2023/11/09 00:34:05;;;;;;;3.80;1.80;;;4.30;99.90;;;;;;4970983;28;20022;-77
2023/11/09 00:36:32;;;;;;;3.08;2.30;;;4.30;99.90;;;;;;5010591;28;20418;-78
2023/11/09 00:38:58;;;;;;;3.10;2.10;;;4.30;99.90;;;;;;5008880;28;20468;-77
2023/11/09 00:41:24;;;;;;;7.82;2.30;;;4.30;99.90;;;;;;5005400;28;20026;-77
2023/11/09 00:43:53;;;;;;;2.33;1.92;;;4.30;99.90;;;;;;5006622;28;20060;-77
2023/11/09 00:46:19;;;;;;;2.53;2.33;;;4.20;99.90;;;;;;5007487;28;20709;-77
2023/11/09 00:48:44;;;;;;;2.22;2.03;;;4.30;99.90;;;;;;5002348;28;20293;-77
2023/11/09 00:51:10;;;;;;;3.13;2.83;;;4.20;99.90;;;;;;5002681;28;20446;-77
2023/11/09 00:53:37;;;;;;;5.05;2.42;;;4.20;99.90;;;;;;5003853;28;20514;-77
2023/11/09 00:56:06;;;;;;;5.78;2.33;;;4.20;99.90;;;;;;5006129;28;20418;-78
2023/11/09 00:58:32;;;;;;;3.45;2.25;;;4.20;99.90;;;;;;5001122;28;20064;-77
2023/11/09 01:00:58;;;;;;;2.42;1.80;;;4.20;99.90;;;;;;4999795;28;20133;-77
2023/11/09 01:03:24;;;;;;;3.97;2.05;;;4.10;99.90;;;;;;5002964;28;20527;-77
2023/11/09 01:05:49;;;;;;;4.13;2.40;;;4.10;99.90;;;;;;5006504;28;20121;-77
2023/11/09 01:08:15;;;;;;;2.90;2.28;;;4.10;99.90;;;;;;5011453;28;20025;-78
2023/11/09 01:10:43;;;;;;;3.90;2.05;;;4.00;99.90;;;;;;5008020;28;20027;-78
2023/11/09 01:13:09;;;;;;;2.85;2.13;;;4.00;99.90;;;;;;5006694;28;20050;-78
2023/11/09 01:15:35;;;;;;;3.90;1.98;;;4.00;99.90;;;;;;5008319;28;20636;-78
2023/11/09 01:18:03;;;;;;;2.88;2.40;;;4.00;99.90;;;;;;5004689;28;20044;-77
2023/11/09 01:20:31;;;;;;;3.67;2.13;;;4.00;99.90;;;;;;5005118;28;20068;-77
2023/11/09 01:22:56;;;;;;;2.88;2.00;;;3.90;99.90;;;;;;5003957;28;20038;-77
2023/11/09 01:25:22;;;;;;;3.15;2.10;;;3.90;99.90;;;;;;5001153;28;20219;-77
2023/11/09 01:27:48;;;;;;;4.18;1.88;;;3.90;99.90;;;;;;5002517;28;20022;-77
2023/11/09 01:30:14;;;;;;;5.93;2.30;;;3.90;99.90;;;;;;5009663;28;20747;-77
2023/11/09 01:32:40;;;;;;;2.15;1.55;;;3.90;99.90;;;;;;5001230;28;20065;-77
2023/11/09 01:35:06;;;;;;;3.20;2.22;;;3.90;99.90;;;;;;5005530;28;20684;-77
2023/11/09 01:37:32;;;;;;;4.43;2.15;;;3.90;99.90;;;;;;5004389;28;20068;-77
2023/11/09 01:39:59;;;;;;;4.45;2.60;;;3.90;99.90;;;;;;5007147;28;20095;-78
2023/11/09 01:42:25;;;;;;;3.58;2.00;;;3.90;99.90;;;;;;5001596;28;20494;-77
2023/11/09 01:44:50;;;;;;;7.78;2.72;;;3.80;99.90;;;;;;5003479;28;20057;-77
2023/11/09 01:47:16;;;;;;;3.53;2.13;;;3.80;99.90;;;;;;5007360;28;20072;-77
2023/11/09 01:49:43;;;;;;;3.83;2.38;;;3.80;99.90;;;;;;5001878;28;20058;-77
2023/11/09 01:52:09;;;;;;;5.45;2.50;;;3.80;99.90;;;;;;5003521;28;20169;-77
2023/11/09 01:54:36;;;;;;;7.28;3.00;;;3.80;99.90;;;;;;5001948;28;20505;-77
2023/11/09 01:57:04;;;;;;;4.65;2.80;;;3.90;99.90;;;;;;4987503;28;20053;-77
2023/11/09 01:59:32;;;;;;;3.55;2.63;;;4.00;99.90;;;;;;4995345;28;20790;-77
2023/11/09 02:02:00;;;;;;;2.42;2.15;;;4.10;99.90;;;;;;4996805;28;20034;-77
2023/11/09 02:04:26;;;;;;;3.13;2.40;;;4.10;99.90;;;;;;5001464;28;20042;-77
2023/11/09 02:06:53;;;;;;;2.80;2.08;;;4.00;99.90;;;;;;5002919;28;20026;-77
2023/11/09 02:09:22;;;;;;;3.97;3.00;;;4.10;99.90;;;;;;4987998;28;20057;-77
2023/11/09 02:11:48;;;;;;;2.58;2.38;;;4.00;99.90;;;;;;5003411;28;20430;-77
2023/11/09 02:14:15;;;;;;;2.85;2.28;;;4.00;99.90;;;;;;5006427;28;20417;-77
2023/11/09 02:16:42;;;;;;;3.70;2.40;;;4.00;99.90;;;;;;5004390;28;20026;-77
2023/11/09 02:19:08;;;;;;;3.63;2.92;;;3.90;99.90;;;;;;5011937;28;20421;-77
2023/11/09 02:21:36;;;;;;;7.00;2.78;;;4.00;99.90;;;;;;5005930;28;20492;-77
2023/11/09 02:24:10;;;;;;;3.92;2.20;;;4.00;99.90;;;;;;5006212;28;20052;-77
2023/11/09 02:26:36;;;;;;;3.92;2.78;;;3.90;99.90;;;;;;4999540;28;20092;-77
2023/11/09 02:29:02;;;;;;;3.72;2.17;;;3.90;99.90;;;;;;5005384;28;20072;-77
2023/11/09 02:31:29;;;;;;;3.97;2.38;;;3.90;99.90;;;;;;5006370;28;20057;-77
2023/11/09 02:33:55;;;;;;;3.33;2.83;;;3.80;99.90;;;;;;5005138;28;20165;-77
2023/11/09 02:36:22;;;;;;;3.58;2.47;;;3.80;99.90;;;;;;5002430;28;20049;-77
2023/11/09 02:38:48;;;;;;;5.57;2.63;;;3.70;99.90;;;;;;5001919;28;20160;-77
2023/11/09 02:41:14;;;;;;;2.97;2.08;;;3.60;99.90;;;;;;5006201;28;20105;-78
2023/11/09 02:43:40;;;;;;;6.03;2.40;;;3.60;99.90;;;;;;5009374;28;20104;-77
2023/11/09 02:46:12;;;;;;;3.03;2.70;;;3.60;99.90;;;;;;5007569;28;20033;-77
2023/11/09 02:48:38;;;;;;;3.95;2.42;;;3.60;99.90;;;;;;5011427;28;20267;-77
2023/11/09 02:51:06;;;;;;;3.17;2.13;;;3.50;99.90;;;;;;5010317;28;20429;-77
2023/11/09 02:53:32;;;;;;;3.63;2.90;;;3.50;99.90;;;;;;5003937;28;20034;-77
2023/11/09 02:55:58;;;;;;;3.15;2.42;;;3.40;99.90;;;;;;5008302;28;20029;-77
2023/11/09 02:58:24;;;;;;;4.10;2.35;;;3.40;99.90;;;;;;5010547;28;20034;-77
2023/11/09 03:00:50;;;;;;;3.97;2.95;;;3.30;99.90;;;;;;5007494;28;20078;-77
2023/11/09 03:03:16;;;;;;;4.00;2.65;;;3.30;99.90;;;;;;5006008;28;20054;-77
2023/11/09 03:05:42;;;;;;;3.85;2.20;;;3.20;99.90;;;;;;5006542;28;20026;-77
2023/11/09 03:08:09;;;;;;;4.13;2.72;;;3.20;99.90;;;;;;5009725;28;20454;-77
2023/11/09 03:10:35;;;;;;;4.18;2.95;;;3.10;99.90;;;;;;5008547;28;20057;-77
2023/11/09 03:13:02;;;;;;;4.63;2.90;;;3.10;99.90;;;;;;5008004;28;20034;-77
2023/11/09 03:15:28;;;;;;;3.55;2.83;;;3.10;99.90;;;;;;5005740;28;20033;-77
2023/11/09 03:17:54;;;;;;;6.35;2.70;;;3.10;99.90;;;;;;5003987;28;20517;-77
2023/11/09 03:20:22;;;;;;;4.55;2.97;;;3.10;99.90;;;;;;5001333;28;20033;-77
2023/11/09 03:22:48;;;;;;;4.07;2.65;;;3.20;99.90;;;;;;5001633;28;20679;-77
2023/11/09 03:25:13;;;;;;;4.45;2.97;;;3.20;99.90;;;;;;4999940;28;20041;-77
2023/11/09 03:27:40;;;;;;;3.97;2.63;;;3.20;99.90;;;;;;5004260;28;20666;-77
2023/11/09 03:30:06;;;;;;;5.00;3.00;;;3.10;99.90;;;;;;5003909;28;20379;-78
2023/11/09 03:32:32;;;;;;;4.70;2.92;;;3.10;99.90;;;;;;5004713;28;20034;-77
2023/11/09 03:34:58;;;;;;;3.83;2.92;;;3.10;99.90;;;;;;5006031;28;20072;-77
2023/11/09 03:37:23;;;;;;;6.38;3.25;;;3.10;99.90;;;;;;5005632;28;20034;-77
2023/11/09 03:39:53;;;;;;;3.42;2.90;;;3.10;99.90;;;;;;5006033;28;20080;-77
2023/11/09 03:42:19;;;;;;;4.57;3.33;;;3.10;99.90;;;;;;5007091;28;20044;-77
2023/11/09 03:44:47;;;;;;;3.88;2.80;;;3.10;99.90;;;;;;5006389;28;20140;-77
2023/11/09 03:47:12;;;;;;;3.58;2.88;;;3.10;99.90;;;;;;5006246;28;20058;-77
2023/11/09 03:49:40;;;;;;;5.13;3.20;;;3.10;99.90;;;;;;5007268;28;20324;-77
2023/11/09 03:52:06;;;;;;;4.43;3.20;;;3.10;99.90;;;;;;5000476;28;20591;-77
2023/11/09 03:54:32;;;;;;;5.63;3.20;;;3.10;99.90;;;;;;5004573;28;20069;-77
2023/11/09 03:56:58;;;;;;;3.78;2.70;;;3.10;99.90;;;;;;5004829;28;20029;-78
2023/11/09 03:59:24;;;;;;;3.75;2.85;;;3.10;99.90;;;;;;5006204;28;20548;-77
2023/11/09 04:01:50;;;;;;;4.07;3.17;;;3.00;99.90;;;;;;5001257;28;20034;-77
2023/11/09 04:04:15;;;;;;;4.57;3.22;;;3.00;99.90;;;;;;5003071;28;20030;-77
2023/11/09 04:06:42;;;;;;;6.80;3.85;;;3.00;99.90;;;;;;5005029;28;20133;-77
2023/11/09 04:09:09;;;;;;;6.15;3.45;;;3.00;99.90;;;;;;5006583;28;20022;-77
2023/11/09 04:11:36;;;;;;;5.85;3.28;;;2.90;99.90;;;;;;4999354;28;20052;-77
2023/11/09 04:14:02;;;;;;;7.70;3.83;;;2.90;99.90;;;;;;5005850;28;20061;-77
2023/11/09 04:16:28;;;;;;;5.07;3.92;;;2.90;99.90;;;;;;5005592;28;20084;-77
2023/11/09 04:18:54;;;;;;;4.10;3.25;;;2.90;99.90;;;;;;5002623;28;20058;-77
2023/11/09 04:21:20;;;;;;;5.97;3.53;;;2.90;99.90;;;;;;5000592;28;20491;-78
2023/11/09 04:23:45;;;;;;;3.83;3.28;;;2.90;99.90;;;;;;5003407;28;20045;-77
2023/11/09 04:26:12;;;;;;;5.53;3.78;;;2.90;99.90;;;;;;5009975;28;20030;-77
2023/11/09 04:28:39;;;;;;;5.32;3.75;;;2.90;99.90;;;;;;5006943;28;20494;-77
2023/11/09 04:31:05;;;;;;;6.28;3.90;;;2.90;99.90;;;;;;5003169;28;20359;-77
2023/11/09 04:33:32;;;;;;;6.93;3.28;;;2.80;99.90;;;;;;5002748;28;20058;-77
2023/11/09 04:35:58;;;;;;;6.32;3.40;;;2.80;99.90;;;;;;5003961;28;20038;-77
2023/11/09 04:38:24;;;;;;;7.95;3.95;;;2.80;99.90;;;;;;5002935;28;20045;-77
2023/11/09 04:41:00;;;;;;;3.97;3.20;;;2.80;99.90;;;;;;5006792;28;20041;-77
2023/11/09 04:43:26;;;;;;;4.65;3.30;;;2.70;99.90;;;;;;5005898;28;20878;-77
2023/11/09 04:45:56;;;;;;;5.38;3.75;;;2.70;99.90;;;;;;5002899;28;20038;-77
2023/11/09 04:48:30;;;;;;;6.00;3.75;;;2.70;99.90;;;;;;5007398;28;20624;-77
2023/11/09 04:51:01;;;;;;;6.57;3.80;;;2.60;99.90;;;;;;5004947;28;20487;-77
2023/11/09 04:53:30;;;;;;;6.93;4.13;;;2.60;99.90;;;;;;5002668;28;20026;-77
2023/11/09 04:56:09;;;;;;;6.93;3.53;;;2.50;99.90;;;;;;5002867;28;20041;-77
2023/11/09 04:58:47;;;;;;;6.07;4.30;;;2.50;99.90;;;;;;4998822;28;20057;-77
2023/11/09 05:06:51;;;;;;;5.57;4.40;;;2.50;99.90;;;;;;5000380;28;19920;-77
2023/11/09 05:09:18;;;;;;;5.78;4.20;;;2.40;99.90;;;;;;5005742;28;20487;-77
2023/11/09 05:11:45;;;;;;;5.65;4.00;;;2.40;99.90;;;;;;5002370;28;20033;-77
2023/11/09 05:14:11;;;;;;;6.85;4.40;;;2.40;99.90;;;;;;5001079;28;20026;-78
2023/11/09 05:16:38;;;;;;;6.75;4.00;;;2.40;99.90;;;;;;5005775;28;20038;-76
2023/11/09 05:19:03;;;;;;;5.88;4.40;;;2.40;99.90;;;;;;5002824;28;20037;-77
2023/11/09 05:21:29;;;;;;;5.70;4.30;;;2.50;99.90;;;;;;5006053;28;20034;-77
2023/11/09 05:23:55;;;;;;;7.15;5.05;;;2.50;99.90;;;;;;5004426;28;20022;-76
2023/11/09 05:26:25;;;;;;;6.40;4.18;;;2.50;99.90;;;;;;5006039;28;20640;-76
2023/11/09 05:28:51;;;;;;;7.72;4.22;;;2.50;99.90;;;;;;5007508;28;20030;-76
2023/11/09 05:31:17;;;;;;;7.45;4.43;;;2.50;99.90;;;;;;5005855;28;20375;-76
2023/11/09 05:33:44;;;;;;;5.70;4.00;;;2.50;99.90;;;;;;5005564;28;20104;-76
2023/11/09 05:36:10;;;;;;;8.48;4.95;;;2.50;99.90;;;;;;5005391;28;20391;-77
2023/11/09 05:38:37;;;;;;;6.00;4.40;;;2.40;99.90;;;;;;5004710;28;20041;-77
2023/11/09 05:41:06;;;;;;;5.97;4.60;;;2.40;99.90;;;;;;5006384;28;20018;-77
2023/11/09 05:43:33;;;;;;;6.72;4.68;;;2.40;99.90;;;;;;5002094;28;20034;-76
2023/11/09 05:45:58;;;;;;;6.00;4.53;;;2.40;99.90;;;;;;5008595;28;20022;-76
2023/11/09 05:48:25;;;;;;;8.20;5.45;;;2.40;99.90;;;;;;5009592;28;20034;-77
2023/11/09 05:50:51;;;;;;;8.52;5.28;;;2.30;99.90;;;;;;5007765;28;20076;-77
2023/11/09 05:53:17;;;;;;;6.55;5.20;;;2.30;99.90;;;;;;5005843;28;20029;-76
2023/11/09 05:55:43;;;;;;;10.77;5.53;;;2.40;99.90;;;;;;5006013;28;20034;-77
2023/11/09 05:58:09;;;;;;;7.95;5.28;;;2.40;99.90;;;;;;5004916;28;20040;-77
2023/11/09 06:00:35;;;;;;;8.55;5.32;;;2.30;99.90;;;;;;5005095;28;20030;-77
2023/11/09 06:03:01;;;;;;;9.52;6.07;;;2.30;99.90;;;;;;5004328;28;20026;-77
2023/11/09 06:05:27;;;;;;;7.63;5.03;;;2.40;99.90;;;;;;4999781;28;20514;-77
2023/11/09 06:07:53;;;;;;;6.40;5.32;;;2.30;99.90;;;;;;5002060;28;20121;-77
2023/11/09 06:10:20;;;;;;;10.73;6.13;;;2.40;99.90;;;;;;4999700;28;20120;-77
2023/11/09 06:12:46;;;;;;;8.10;5.10;;;2.30;99.90;;;;;;5002000;28;20034;-77
2023/11/09 06:15:15;;;;;;;7.65;4.85;;;2.30;99.90;;;;;;4999768;28;20109;-77
2023/11/09 06:17:43;;;;;;;11.00;5.85;;;2.30;99.90;;;;;;5001840;28;20546;-77
2023/11/09 06:20:13;;;;;;;6.47;5.32;;;2.20;99.90;;;;;;5003580;28;20042;-77
2023/11/09 06:22:40;;;;;;;9.00;5.60;;;2.20;99.90;;;;;;5001095;28;20077;-77
2023/11/09 06:25:07;;;;;;;8.40;6.30;;;2.20;99.90;;;;;;4997557;28;20027;-77
2023/11/09 06:27:33;;;;;;;9.02;5.93;;;2.30;99.90;;;;;;5001622;28;20042;-77
2023/11/09 06:29:59;;;;;;;9.10;5.80;;;2.20;99.90;;;;;;5006378;28;20037;-77
2023/11/09 06:32:27;;;;;;;7.60;5.45;;;2.20;99.90;;;;;;4999636;28;20037;-78
2023/11/09 06:34:53;;;;;;;9.93;6.22;;;2.20;99.90;;;;;;5000831;28;20034;-77
2023/11/09 06:37:20;;;;;;;8.55;5.70;;;2.20;99.90;;;;;;5003293;28;20410;-77
2023/11/09 06:39:49;;;;;;;8.95;6.28;;;2.20;99.90;;;;;;5000021;28;20054;-77
2023/11/09 06:42:18;;;;;;;10.27;6.15;;;2.30;99.90;;;;;;5000091;28;20548;-77
2023/11/09 06:44:44;;;;;;;8.25;5.97;;;2.20;99.90;;;;;;5004080;28;20038;-77
2023/11/09 06:47:10;;;;;;;9.88;5.88;;;2.30;99.90;;;;;;5002744;28;20121;-77
2023/11/09 06:49:37;;;;;;;8.55;5.78;;;2.30;99.90;;;;;;5004844;28;20045;-76
2023/11/09 06:52:06;;;;;;;8.25;5.78;;;2.30;99.90;;;;;;5000813;28;20648;-77
2023/11/09 06:54:32;;;;;;;8.30;6.20;;;2.30;99.90;;;;;;5002589;28;20026;-77
2023/11/09 06:57:02;;;;;;;7.95;5.72;;;2.30;99.90;;;;;;5000124;28;20049;-77
2023/11/09 06:59:29;;;;;;;8.40;5.70;;;2.40;99.90;;;;;;4997748;28;20126;-77
2023/11/09 07:01:55;;;;;;;11.27;6.50;;;2.40;99.90;;;;;;5000639;28;20037;-77
2023/11/09 07:04:23;;;;;;;8.60;6.32;;;2.40;99.90;;;;;;5004546;28;20609;-78
2023/11/09 07:06:49;;;;;;;9.77;6.57;;;2.50;99.90;;;;;;5000727;28;20046;-77
2023/11/09 07:09:15;;;;;;;10.82;6.47;;;2.50;99.90;;;;;;5003262;28;20026;-77
2023/11/09 07:11:42;;;;;;;9.52;6.30;;;2.50;99.90;;;;;;5000960;28;20072;-78
2023/11/09 07:14:10;;;;;;;11.27;6.63;;;2.50;99.90;;;;;;4998983;28;20026;-77
2023/11/09 07:16:36;;;;;;;10.45;7.15;;;2.60;99.90;;;;;;4998695;28;20072;-77
2023/11/09 07:19:02;;;;;;;11.68;6.97;;;2.70;99.90;;;;;;4998346;28;20076;-77
2023/11/09 07:21:27;;;;;;;9.98;6.28;;;2.70;99.90;;;;;;4998881;28;20037;-77
2023/11/09 07:23:59;;;;;;;10.73;6.72;;;2.80;99.90;;;;;;5003035;28;20030;-79
2023/11/09 07:26:30;;;;;;;11.50;7.25;;;2.90;99.90;;;;;;5004510;28;20026;-78
2023/11/09 07:28:55;;;;;;;12.95;6.30;;;2.90;99.90;;;;;;5007513;28;20038;-79
2023/11/09 07:31:21;;;;;;;8.43;6.30;;;2.90;99.90;;;;;;5008279;28;20040;-78
2023/11/09 07:33:49;;;;;;;9.18;6.07;;;2.90;99.90;;;;;;5007565;28;20622;-78
2023/11/09 07:36:18;;;;;;;11.90;6.55;;;3.00;99.90;;;;;;5001473;28;20105;-77
2023/11/09 07:38:44;;;;;;;7.68;6.20;;;3.00;99.90;;;;;;5001697;28;20053;-78
2023/11/09 07:41:10;;;;;;;11.55;6.38;;;3.00;99.90;;;;;;5006740;28;20030;-78
2023/11/09 07:43:36;;;;;;;8.07;6.10;;;3.10;99.90;;;;;;5004845;28;20104;-77
2023/11/09 07:46:02;;;;;;;9.02;6.07;;;3.10;99.90;;;;;;5008865;28;20042;-77
2023/11/09 07:48:28;;;;;;;8.73;6.88;;;3.10;99.90;;;;;;5003056;28;20446;-79
2023/11/09 07:50:54;;;;;;;7.68;6.05;;;3.10;99.90;;;;;;4999896;28;20026;-77
2023/11/09 07:53:22;;;;;;;11.65;6.22;;;3.20;99.90;;;;;;5001776;28;20112;-77
2023/11/09 07:56:03;;;;;;;11.07;6.93;;;3.20;99.90;;;;;;5005143;28;20060;-75
2023/11/09 07:58:50;;;;;;;10.93;6.35;;;3.30;99.90;;;;;;4987132;28;20037;-75
2023/11/09 08:01:25;;;;;;;10.27;6.72;;;3.30;99.90;;;;;;5015002;28;20040;-76
2023/11/09 08:03:51;;;;;;;8.73;6.38;;;3.40;99.90;;;;;;5009364;28;20033;-75
2023/11/09 08:06:17;;;;;;;9.55;5.95;;;3.40;99.90;;;;;;5004138;28;20042;-76
2023/11/09 08:08:47;;;;;;;9.93;5.80;;;3.40;99.90;;;;;;5006228;28;20113;-76
2023/11/09 08:11:13;;;;;;;8.43;5.68;;;3.50;99.90;;;;;;5004284;28;20117;-76
2023/11/09 08:13:40;;;;;;;6.43;5.15;;;3.50;99.90;;;;;;5007922;28;20506;-77
2023/11/09 08:16:06;;;;;;;6.10;5.03;;;3.60;99.90;;;;;;5009277;28;20029;-77
2023/11/09 08:18:32;;;;;;;6.72;5.13;;;3.60;99.90;;;;;;5007483;28;20072;-79
2023/11/09 08:20:59;;;;;;;8.35;5.68;;;3.60;99.90;;;;;;5007641;28;20058;-79
2023/11/09 08:23:25;;;;;;;11.57;5.18;;;3.60;99.90;;;;;;5006626;28;20041;-78
2023/11/09 08:25:53;;;;;;;8.45;5.18;;;3.70;99.90;;;;;;5009891;28;20033;-77
2023/11/09 08:28:19;;;;;;;7.55;5.68;;;3.70;99.90;;;;;;5009878;28;20045;-77
2023/11/09 08:30:44;;;;;;;7.88;5.25;;;3.70;99.90;;;;;;5010094;28;20084;-77
2023/11/09 08:33:10;;;;;;;8.95;5.70;;;3.70;99.90;;;;;;5006961;28;20069;-78
2023/11/09 08:35:37;;;;;;;7.38;5.07;;;3.70;99.90;;;;;;5006442;28;20022;-79
2023/11/09 08:38:08;;;;;;;7.90;5.32;;;3.80;99.90;;;;;;5002795;28;20088;-78
2023/11/09 08:40:36;;;;;;;7.78;5.40;;;3.70;99.90;;;;;;5010806;28;20046;-78
2023/11/09 08:43:04;;;;;;;10.18;5.55;;;3.60;99.90;;;;;;5009043;28;20160;-79
2023/11/09 08:45:31;;;;;;;7.25;5.68;;;3.70;99.90;;;;;;5008558;28;20037;-77
2023/11/09 08:47:58;;;;;;;8.05;4.65;;;3.70;99.90;;;;;;5011249;28;20038;-79
2023/11/09 08:50:24;;;;;;;6.15;4.85;;;3.70;99.90;;;;;;5007600;28;20474;-79
2023/11/09 08:52:53;;;;;;;7.90;4.30;;;3.70;99.90;;;;;;5011269;28;20034;-79
2023/11/09 08:55:20;;;;;;;7.30;4.90;;;3.70;99.90;;;;;;5008727;28;20434;-79
2023/11/09 08:57:47;;;;;;;7.90;4.72;;;3.80;99.90;;;;;;5006951;28;20030;-79
2023/11/09 09:00:13;;;;;;;6.18;4.65;;;3.80;99.90;;;;;;5008176;28;20456;-79
2023/11/09 09:02:48;;;;;;;6.75;5.40;;;3.90;99.90;;;;;;5006129;28;20037;-79
2023/11/09 09:05:21;;;;;;;6.68;4.93;;;3.90;99.90;;;;;;5005028;28;20041;-77
2023/11/09 09:07:49;;;;;;;6.55;4.93;;;4.10;99.90;;;;;;5006054;28;20057;-79
2023/11/09 09:10:16;;;;;;;6.90;4.90;;;4.10;99.90;;;;;;5011584;28;20084;-78
2023/11/09 09:12:45;;;;;;;6.45;4.72;;;4.30;99.90;;;;;;5009541;28;20115;-79
2023/11/09 09:15:13;;;;;;;7.10;4.82;;;4.50;99.90;;;;;;5008923;28;20030;-79
2023/11/09 09:17:42;;;;;;;6.55;4.82;;;4.70;99.90;;;;;;5011145;28;20049;-78
2023/11/09 09:20:12;;;;;;;4.78;3.80;;;4.80;99.90;;;;;;5009653;28;20030;-76
2023/11/09 09:22:43;;;;;;;6.50;4.03;;;4.90;99.90;;;;;;5003945;28;20402;-77
2023/11/09 09:25:12;;;;;;;8.10;4.20;;;5.00;99.90;;;;;;5005234;28;20030;-77
2023/11/09 09:27:48;;;;;;;5.10;3.65;;;5.10;99.90;;;;;;5004111;28;20048;-77
2023/11/09 09:30:18;;;;;;;5.93;4.07;;;5.20;99.90;;;;;;5003280;28;20030;-78
2023/11/09 09:32:48;;;;;;;7.75;3.67;;;5.30;99.90;;;;;;5002686;28;20037;-78
2023/11/09 09:35:15;;;;;;;4.80;3.55;;;5.40;99.90;;;;;;5006511;28;20029;-79
2023/11/09 09:37:42;;;;;;;4.82;3.55;;;5.60;99.90;;;;;;5005609;28;20482;-78
2023/11/09 09:40:17;;;;;;;5.07;2.80;;;5.80;99.90;;;;;;5008492;28;20029;-78
2023/11/09 09:42:49;;;;;;;5.53;3.23;;;6.00;99.90;;;;;;5006430;28;20510;-78
2023/11/09 09:45:30;;;;;;;4.28;3.10;;;6.20;99.90;;;;;;5010158;28;20044;-79
2023/11/09 09:48:01;;;;;;;4.57;3.53;;;6.30;99.90;;;;;;5013976;28;20034;-78
2023/11/09 09:50:37;;;;;;;3.67;2.53;;;6.50;99.90;;;;;;5012645;28;20065;-78
2023/11/09 09:53:08;;;;;;;4.10;2.75;;;6.70;99.90;;;;;;5011168;28;20034;-79
2023/11/09 09:55:36;;;;;;;3.33;2.50;;;6.70;99.90;;;;;;5012096;28;20032;-77
2023/11/09 09:58:03;;;;;;;7.68;2.63;;;6.80;99.90;;;;;;5010638;28;20038;-78
2023/11/09 10:00:31;;;;;;;2.60;2.38;;;6.90;99.90;;;;;;5009086;28;20038;-78
2023/11/09 10:03:16;;;;;;;2.97;2.67;;;7.00;99.90;;;;;;5009397;28;20095;-78
2023/11/09 10:05:42;;;;;;;3.75;2.95;;;7.00;99.90;;;;;;5013301;28;20034;-76
2023/11/09 10:08:08;;;;;;;5.18;2.92;;;7.10;99.90;;;;;;5012101;28;20099;-79
2023/11/09 10:10:37;;;;;;;5.78;2.80;;;7.10;99.90;;;;;;5007457;28;20105;-78
2023/11/09 10:13:07;;;;;;;6.28;3.60;;;7.20;99.90;;;;;;5008425;28;20026;-78
2023/11/09 10:15:34;;;;;;;4.38;2.88;;;7.20;99.90;;;;;;5010075;28;20399;-79
2023/11/09 10:18:00;;;;;;;7.20;3.40;;;7.30;99.90;;;;;;5007549;28;20690;-79
2023/11/09 10:20:27;;;;;;;3.97;2.45;;;7.40;99.90;;;;;;5015136;28;20038;-78
2023/11/09 10:22:54;;;;;;;5.57;1.90;;;7.40;99.90;;;;;;5011503;28;20053;-79
2023/11/09 10:25:26;;;;;;;3.13;1.80;;;7.50;99.90;;;;;;5012774;28;20053;-78
2023/11/09 10:28:00;;;;;;;2.90;1.90;;;7.50;99.90;;;;;;5018879;28;20073;-78
2023/11/09 10:30:28;;;;;;;5.15;1.80;;;7.60;99.90;;;;;;5015723;28;20037;-79
2023/11/09 10:33:07;;;;;;;3.03;1.85;;;7.60;99.90;;;;;;5011422;28;20025;-78
2023/11/09 10:35:38;;;;;;;3.42;2.03;;;7.60;99.90;;;;;;5007354;28;20712;-79
2023/11/09 10:38:09;;;;;;;2.95;1.90;;;7.70;99.90;;;;;;5010724;28;20052;-79
2023/11/09 10:40:35;;;;;;;5.47;1.98;;;7.70;99.90;;;;;;5018699;28;20065;-78
2023/11/09 10:43:01;;;;;;;3.17;2.08;;;7.80;99.90;;;;;;5000728;28;20026;-78
2023/11/09 10:45:30;;;;;;;3.65;2.00;;;7.80;99.90;;;;;;5001871;28;20040;-78
2023/11/09 10:47:59;;;;;;;4.68;1.77;;;7.90;99.90;;;;;;5003536;28;20038;-77
2023/11/09 10:50:26;;;;;;;1.67;1.52;;;8.00;99.90;;;;;;5005884;28;20096;-76
2023/11/09 10:52:56;;;;;;;1.80;1.55;;;8.00;99.90;;;;;;4998257;28;20690;-77
2023/11/09 10:55:23;;;;;;;1.58;1.40;;;8.00;99.90;;;;;;4995860;28;20795;-77
2023/11/09 10:57:50;;;;;;;2.35;1.70;;;8.00;99.90;;;;;;4999492;28;20117;-78
2023/11/09 11:00:26;;;;;;;2.00;1.33;;;8.00;99.90;;;;;;4998204;28;20023;-78
2023/11/09 11:02:53;;;;;;;2.15;1.33;;;8.00;99.90;;;;;;4999683;28;20069;-78
2023/11/09 11:05:25;;;;;;;1.42;1.00;;;8.00;99.90;;;;;;5002537;28;20033;-77
2023/11/09 11:07:59;;;;;;;1.75;1.25;;;8.00;99.90;;;;;;5000955;28;20038;-77
2023/11/09 11:10:27;;;;;;;1.88;1.27;;;8.00;99.90;;;;;;5000617;28;20607;-77
2023/11/09 11:12:55;;;;;;;1.15;1.00;;;7.90;99.90;;;;;;5000046;28;20041;-77
2023/11/09 11:15:30;;;;;;;2.13;1.13;;;7.90;99.90;;;;;;4999968;28;20057;-76
2023/11/09 11:18:30;;;;;;;1.15;0.98;;;7.90;99.90;;;;;;5002795;28;20053;-77
2023/11/09 11:21:15;;;;;;;2.05;1.00;;;7.90;99.90;;;;;;4994152;28;20045;-77
2023/11/09 11:24:10;;;;;;;5.45;0.80;;;7.90;99.90;;;;;;5002002;28;20030;-76
2023/11/09 11:26:55;;;;;;;1.00;0.90;;;7.90;99.90;;;;;;4996222;28;20394;-76
2023/11/09 11:29:21;;;;;;;1.40;1.20;;;8.00;99.90;;;;;;5001068;28;20021;-77
2023/11/09 11:31:47;;;;;;;1.33;1.13;;;8.00;99.90;;;;;;5004369;28;20032;-79
2023/11/09 11:34:16;;;;;;;1.65;1.30;;;8.10;99.90;;;;;;5004282;28;20026;-78
2023/11/09 11:36:47;;;;;;;2.50;1.27;;;8.20;99.90;;;;;;5017167;28;20038;-76
2023/11/09 11:39:35;;;;;;;1.85;1.33;;;8.20;99.90;;;;;;5002380;28;20037;-78
2023/11/09 11:42:22;;;;;;;2.17;0.98;;;8.20;99.90;;;;;;5000697;28;20705;-79
2023/11/09 11:44:53;;;;;;;2.13;1.33;;;8.20;99.90;;;;;;5000938;28;20494;-77
2023/11/09 11:47:23;;;;;;;2.47;1.02;;;8.20;99.90;;;;;;4998200;28;20030;-77
2023/11/09 11:49:50;;;;;;;2.80;0.93;;;8.20;99.90;;;;;;4996747;28;20037;-77
2023/11/09 11:52:19;;;;;;;1.63;1.10;;;8.20;99.90;;;;;;4999212;28;20420;-76
2023/11/09 11:54:46;;;;;;;1.65;0.98;;;8.20;99.90;;;;;;4996096;28;20040;-77
2023/11/09 11:57:12;;;;;;;1.20;1.10;;;8.20;99.90;;;;;;4994384;28;20037;-78
2023/11/09 11:59:43;;;;;;;2.13;1.17;;;8.20;99.90;;;;;;4997195;28;20569;-77
2023/11/09 12:02:13;;;;;;;2.35;1.33;;;8.20;99.90;;;;;;5001127;28;20439;-78
2023/11/09 12:04:47;;;;;;;2.00;1.08;;;8.30;99.90;;;;;;5006590;28;20052;-79
2023/11/09 12:07:18;;;;;;;2.20;1.70;;;8.30;99.90;;;;;;5001463;28;20045;-77
2023/11/09 12:09:48;;;;;;;2.13;1.52;;;8.40;99.90;;;;;;5002793;28;20093;-79
2023/11/09 12:12:14;;;;;;;2.00;1.20;;;8.40;99.90;;;;;;5004957;28;20026;-78
2023/11/09 12:14:43;;;;;;;2.15;1.30;;;8.40;99.90;;;;;;5004386;28;20030;-79
2023/11/09 12:17:09;;;;;;;2.30;1.35;;;8.40;99.90;;;;;;5001198;28;20034;-78
2023/11/09 12:19:36;;;;;;;1.65;1.27;;;8.30;99.90;;;;;;5004157;28;20487;-77
2023/11/09 12:22:02;;;;;;;2.45;1.40;;;8.30;99.90;;;;;;5007706;28;20049;-77
2023/11/09 12:24:28;;;;;;;3.20;1.33;;;8.30;99.90;;;;;;5006241;28;20108;-78
2023/11/09 12:27:10;;;;;;;1.63;1.35;;;8.30;99.90;;;;;;4985595;28;20041;-78
2023/11/09 12:29:43;;;;;;;2.50;1.20;;;8.30;99.90;;;;;;5003086;28;20072;-78
2023/11/09 12:32:09;;;;;;;1.30;1.10;;;8.30;99.90;;;;;;5003460;28;20029;-78
2023/11/09 12:34:40;;;;;;;1.92;1.20;;;8.20;99.90;;;;;;5003369;28;20018;-78
2023/11/09 12:37:13;;;;;;;2.33;1.48;;;8.20;99.90;;;;;;5000884;28;20038;-80
2023/11/09 12:39:40;;;;;;;1.50;1.10;;;8.20;99.90;;;;;;5008590;28;20558;-79
2023/11/09 12:42:06;;;;;;;1.42;1.33;;;8.20;99.90;;;;;;5003086;28;20504;-78
2023/11/09 12:44:42;;;;;;;1.38;1.20;;;8.10;99.90;;;;;;4998763;28;20058;-79
2023/11/09 12:47:15;;;;;;;;;;;8.10;99.90;;;;;;5005085;28;20089;-77
2023/11/09 12:49:45;;;;;;;1.90;1.80;;;8.10;99.90;;;;;;4999189;28;19933;-78
2023/11/09 12:52:11;;;;;;;3.22;1.48;;;8.10;99.90;;;;;;5000222;28;20030;-78
2023/11/09 12:54:39;;;;;;;1.75;1.52;;;8.00;99.90;;;;;;5000533;28;20056;-76
2023/11/09 12:57:06;;;;;;;3.75;1.60;;;8.10;99.90;;;;;;5004372;28;20079;-79
2023/11/09 12:59:41;;;;;;;2.40;1.80;;;8.10;99.90;;;;;;5000277;28;20056;-79
2023/11/09 13:02:14;;;;;;;1.55;1.40;;;8.10;99.90;;;;;;4996614;28;20038;-79
2023/11/09 13:04:46;;;;;;;4.72;1.65;;;8.10;99.90;;;;;;5000977;28;20096;-79
2023/11/09 13:07:13;;;;;;;2.17;1.38;;;8.10;99.90;;;;;;5006799;28;20026;-78
2023/11/09 13:09:43;;;;;;;2.65;1.63;;;8.10;99.90;;;;;;4998282;28;20791;-79